Time;durP1;ratioP1;P1;durP2;ratioP2;P2;SDS_P1;SDS_P2;PMS_P1;PMS_P2;Temp;Humidity;BMP_temperature;BMP_pressure;BME280_temperature;BME280_humidity;BME280_pressure;Samples;Min_cycle;Max_cycle;Signal;HPM_P1;HPM_P2
2022/03/30 00:00:22;;;;;;;20.08;11.80;;;;;;;6.86;82.07;92712.09;5012335;28;20096;-80
2022/03/30 00:02:49;;;;;;;22.33;10.80;;;;;;;6.80;83.18;92714.47;5012595;28;20108;-80
2022/03/30 00:05:16;;;;;;;22.17;12.38;;;;;;;6.84;83.79;92714.06;5012363;28;20061;-80
2022/03/30 00:07:43;;;;;;;19.00;10.52;;;;;;;6.59;82.88;92676.41;5012772;28;20053;-80
2022/03/30 00:10:10;;;;;;;21.98;11.88;;;;;;;6.81;83.98;92710.91;5021433;28;20132;-80
2022/03/30 00:12:38;;;;;;;20.80;11.82;;;;;;;6.62;83.78;92670.91;5033224;28;20128;-79
2022/03/30 00:15:06;;;;;;;18.23;10.18;;;;;;;6.86;84.46;92697.56;5031592;28;20045;-80
2022/03/30 00:17:33;;;;;;;19.80;10.75;;;;;;;6.85;86.60;92707.97;5031315;28;20049;-79
2022/03/30 00:20:02;;;;;;;16.90;11.57;;;;;;;6.65;85.75;92678.94;5031662;28;20407;-79
2022/03/30 00:22:29;;;;;;;15.93;9.90;;;;;;;6.82;82.92;92706.59;5031573;28;20041;-80
2022/03/30 00:24:56;;;;;;;16.42;11.15;;;;;;;6.73;86.17;92687.38;5031393;28;20054;-79
2022/03/30 00:27:23;;;;;;;19.00;11.07;;;;;;;6.81;85.64;92698.16;5031637;28;20364;-79
2022/03/30 00:29:51;;;;;;;19.40;10.43;;;;;;;6.60;87.49;92655.78;5031361;28;20042;-81
2022/03/30 00:32:18;;;;;;;18.95;10.48;;;;;;;6.60;86.26;92648.13;5031383;28;20100;-80
2022/03/30 00:34:46;;;;;;;21.20;10.85;;;;;;;6.82;86.26;92681.09;5020541;28;20068;-79
2022/03/30 00:37:13;;;;;;;20.30;10.93;;;;;;;6.93;84.59;92689.88;5030490;28;20064;-80
2022/03/30 00:39:39;;;;;;;25.55;11.77;;;;;;;6.93;88.54;92697.53;5031067;28;20084;-79
2022/03/30 00:42:14;;;;;;;20.42;12.10;;;;;;;6.69;87.60;92664.00;5030939;28;20047;-80
2022/03/30 00:44:41;;;;;;;20.90;11.50;;;;;;;6.84;87.13;92691.88;5031292;28;20056;-80
2022/03/30 00:47:15;;;;;;;14.52;10.15;;;;;;;6.92;85.15;92695.97;5031302;28;20045;-80
2022/03/30 00:49:42;;;;;;;22.52;11.68;;;;;;;6.77;87.57;92663.78;5031131;28;20521;-79
2022/03/30 00:52:10;;;;;;;21.52;11.88;;;;;;;7.01;86.74;92691.44;5031103;28;20046;-78
2022/03/30 00:54:37;;;;;;;23.33;10.55;;;;;;;7.03;87.92;92686.94;5030704;28;20797;-80
2022/03/30 00:57:07;;;;;;;16.60;10.38;;;;;;;6.74;88.21;92637.88;5030961;28;20049;-80
2022/03/30 00:59:34;;;;;;;18.63;11.40;;;;;;;6.53;87.06;92601.44;5030936;28;20425;-80
2022/03/30 01:02:02;;;;;;;20.45;10.43;;;;;;;7.14;88.99;92668.44;5030640;28;20045;-81
2022/03/30 01:04:32;;;;;;;22.83;11.00;;;;;;;7.14;89.52;92652.31;5030790;28;20049;-81
2022/03/30 01:06:59;;;;;;;17.88;10.65;;;;;;;6.77;87.11;92604.31;5030534;28;20089;-81
2022/03/30 01:09:26;;;;;;;16.27;10.15;;;;;;;7.13;88.40;92640.53;5030481;28;20046;-81
2022/03/30 01:11:53;;;;;;;16.88;9.73;;;;;;;7.25;88.49;92643.22;5012236;28;20049;-81
2022/03/30 01:14:21;;;;;;;19.30;10.27;;;;;;;6.94;87.71;92600.31;5011516;28;20479;-81
2022/03/30 01:16:48;;;;;;;60.50;25.35;;;;;;;6.95;88.54;92591.69;5011062;28;20046;-82
2022/03/30 01:19:15;;;;;;;28.00;14.10;;;;;;;7.43;87.83;92656.13;5011168;28;20050;-82
2022/03/30 01:21:45;;;;;;;20.02;10.13;;;;;;;7.21;88.45;92610.44;5011468;28;20476;-82
2022/03/30 01:24:14;;;;;;;20.80;11.20;;;;;;;7.56;88.69;92651.94;5010627;28;20469;-82
2022/03/30 01:26:42;;;;;;;16.85;10.65;;;;;;;7.49;88.88;92632.31;5011310;28;20449;-82
2022/03/30 01:34:31;;;;;;;20.23;10.77;;;;;;;7.51;89.38;92629.56;5001255;28;20513;-79
2022/03/30 01:36:59;;;;;;;21.02;11.27;;;;;;;7.47;87.71;92625.84;5010508;28;20046;-79
2022/03/30 01:39:26;;;;;;;17.58;11.32;;;;;;;7.16;89.34;92584.72;5010326;28;20053;-79
2022/03/30 01:41:53;;;;;;;21.75;11.40;;;;;;;7.48;87.19;92628.19;5010577;28;20057;-79
2022/03/30 01:44:20;;;;;;;15.98;10.95;;;;;;;7.79;90.02;92664.22;5010239;28;20053;-81
2022/03/30 01:46:47;;;;;;;19.90;10.93;;;;;;;7.82;86.13;92657.91;5010236;28;20041;-81
2022/03/30 01:49:13;;;;;;;18.85;12.02;;;;;;;7.57;84.77;92645.84;5010013;28;20046;-81
2022/03/30 01:51:40;;;;;;;18.45;12.15;;;;;;;7.53;89.46;92663.34;5010135;28;20070;-81
2022/03/30 01:54:08;;;;;;;21.25;11.73;;;;;;;7.38;90.78;92660.28;5010257;28;20053;-81
2022/03/30 01:56:35;;;;;;;28.80;12.80;;;;;;;7.00;93.77;92636.25;5010114;28;20116;-81
2022/03/30 01:59:02;;;;;;;21.35;12.43;;;;;;;6.54;94.13;92575.69;5009983;28;20081;-80
2022/03/30 02:01:29;;;;;;;21.75;12.50;;;;;;;6.79;95.83;92656.72;5009732;28;20506;-80
2022/03/30 02:03:56;;;;;;;23.30;12.25;;;;;;;6.35;97.04;92613.00;5010084;28;20053;-80
2022/03/30 02:06:24;;;;;;;18.55;11.27;;;;;;;6.74;95.62;92666.75;5009762;28;20128;-80
2022/03/30 02:08:51;;;;;;;21.52;12.73;;;;;;;6.68;94.90;92650.47;5009890;28;20137;-81
2022/03/30 02:11:19;;;;;;;19.85;12.77;;;;;;;6.24;95.45;92614.41;5010053;28;20041;-81
2022/03/30 02:13:46;;;;;;;19.13;12.18;;;;;;;6.60;93.28;92653.22;5009638;28;20080;-81
2022/03/30 02:16:13;;;;;;;18.67;11.57;;;;;;;6.78;90.98;92674.78;5009758;28;20050;-81
2022/03/30 02:18:40;;;;;;;21.42;11.02;;;;;;;6.62;92.17;92643.59;5009546;28;20042;-81
2022/03/30 02:21:07;;;;;;;23.95;11.38;;;;;;;6.85;92.00;92669.69;5010431;28;20053;-82
2022/03/30 02:23:34;;;;;;;19.52;10.90;;;;;;;6.85;89.50;92650.03;5009475;28;20046;-82
2022/03/30 02:26:01;;;;;;;16.58;10.38;;;;;;;6.80;89.78;92645.53;5010016;28;20045;-82
2022/03/30 02:28:29;;;;;;;15.60;10.77;;;;;;;6.23;89.77;92549.09;5009998;28;20045;-82
2022/03/30 02:30:56;;;;;;;19.92;11.32;;;;;;;6.96;90.31;92653.75;5010148;28;20050;-81
2022/03/30 02:33:23;;;;;;;19.88;10.57;;;;;;;7.05;89.61;92657.63;5009755;28;20046;-81
2022/03/30 02:35:50;;;;;;;16.23;10.55;;;;;;;6.80;88.46;92620.00;5009878;28;20054;-81
2022/03/30 02:38:16;;;;;;;15.75;10.18;;;;;;;7.13;88.69;92666.84;5009755;28;20099;-81
2022/03/30 02:40:44;;;;;;;14.23;9.23;;;;;;;6.67;88.63;92590.19;5009481;28;20416;-82
2022/03/30 02:43:11;;;;;;;16.27;9.88;;;;;;;7.19;89.03;92662.72;5009155;28;20136;-81
2022/03/30 02:45:39;;;;;;;16.52;10.80;;;;;;;7.07;87.89;92648.03;5009572;28;20132;-81
2022/03/30 02:48:28;;;;;;;18.67;11.00;;;;;;;6.76;87.85;92611.19;5009563;28;20077;-81
2022/03/30 02:50:57;;;;;;;22.98;12.68;;;;;;;7.10;87.43;92651.94;5009417;28;20052;-82
2022/03/30 02:53:25;;;;;;;20.38;11.93;;;;;;;7.09;87.00;92647.81;5009833;28;20142;-82
2022/03/30 02:55:52;;;;;;;19.42;11.15;;;;;;;7.19;87.31;92657.59;5010075;28;20041;-82
2022/03/30 02:58:19;;;;;;;18.75;11.88;;;;;;;6.93;86.02;92628.59;5013638;28;20061;-81
2022/03/30 03:00:48;;;;;;;21.17;11.20;;;;;;;6.45;85.68;92551.41;5032585;28;20068;-81
2022/03/30 03:03:15;;;;;;;18.60;11.15;;;;;;;6.80;86.36;92609.78;5033134;28;20068;-81
2022/03/30 03:05:42;;;;;;;22.70;12.70;;;;;;;6.90;87.54;92629.03;5039564;28;20128;-81
2022/03/30 03:08:11;;;;;;;21.05;12.73;;;;;;;6.97;87.91;92645.09;5038598;28;20129;-81
2022/03/30 03:10:39;;;;;;;23.00;13.82;;;;;;;6.92;87.64;92645.72;5024425;28;20069;-81
2022/03/30 03:13:07;;;;;;;22.50;12.65;;;;;;;6.90;87.45;92646.91;5013049;28;20502;-80
2022/03/30 03:15:36;;;;;;;20.02;13.10;;;;;;;6.68;86.87;92621.63;5013189;28;20045;-81
2022/03/30 03:18:05;;;;;;;21.10;12.25;;;;;;;6.80;87.58;92642.97;5013208;28;20041;-81
2022/03/30 03:20:34;;;;;;;24.77;12.45;;;;;;;6.47;87.07;92604.78;5013034;28;20046;-79
2022/03/30 03:23:02;;;;;;;19.92;11.00;;;;;;;6.70;87.43;92644.41;5012842;28;20100;-79
2022/03/30 03:25:31;;;;;;;18.67;11.40;;;;;;;6.36;87.88;92611.25;5012765;28;20077;-79
2022/03/30 03:27:58;;;;;;;21.73;11.32;;;;;;;6.44;88.05;92628.94;5013023;28;20042;-79
2022/03/30 03:30:25;;;;;;;20.55;11.90;;;;;;;6.12;88.69;92598.16;5012668;28;20137;-79
2022/03/30 03:32:53;;;;;;;18.23;10.85;;;;;;;6.00;89.85;92575.75;5012596;28;20046;-81
2022/03/30 03:35:21;;;;;;;19.27;11.02;;;;;;;6.42;91.39;92653.84;5012871;28;20046;-80
2022/03/30 03:37:48;;;;;;;19.17;11.45;;;;;;;6.31;92.35;92641.69;5012504;28;20050;-80
2022/03/30 03:40:17;;;;;;;18.00;11.85;;;;;;;6.36;91.99;92647.78;5012401;28;20052;-79
2022/03/30 03:42:44;;;;;;;22.70;11.75;;;;;;;6.25;92.58;92643.25;5012491;28;20045;-79
2022/03/30 03:45:12;;;;;;;18.75;10.65;;;;;;;6.25;93.76;92654.22;5012475;28;20088;-79
2022/03/30 03:47:41;;;;;;;23.38;11.30;;;;;;;6.15;93.93;92651.28;5012194;28;20042;-79
2022/03/30 03:50:09;;;;;;;23.63;11.80;;;;;;;6.18;94.40;92656.00;5012221;28;20046;-79
2022/03/30 03:52:38;;;;;;;22.92;12.60;;;;;;;6.01;95.61;92627.53;5012352;28;20458;-79
2022/03/30 03:55:05;;;;;;;20.13;12.60;;;;;;;5.98;95.23;92622.81;5009565;28;20514;-79
2022/03/30 03:57:33;;;;;;;20.50;12.15;;;;;;;6.04;96.45;92647.56;5009536;28;20513;-79
2022/03/30 04:00:00;;;;;;;25.70;13.32;;;;;;;5.93;96.76;92632.81;5011516;28;20050;-79
2022/03/30 04:02:27;;;;;;;23.88;13.30;;;;;;;5.92;95.86;92644.78;5012378;28;20045;-78
2022/03/30 04:04:54;;;;;;;22.60;13.68;;;;;;;5.77;97.39;92644.94;5012346;28;20069;-79
2022/03/30 04:07:21;;;;;;;25.42;14.55;;;;;;;5.68;97.34;92633.38;5011551;28;20050;-78
2022/03/30 04:09:49;;;;;;;25.98;15.45;;;;;;;5.48;99.18;92616.28;5012231;28;20049;-77
2022/03/30 04:12:16;;;;;;;32.47;19.13;;;;;;;5.67;97.34;92649.63;5011764;28;20046;-78
2022/03/30 04:14:42;;;;;;;29.83;17.20;;;;;;;5.62;97.13;92642.56;5011646;28;20569;-78
2022/03/30 04:17:11;;;;;;;27.50;16.65;;;;;;;5.60;100.00;92640.22;5011845;28;20057;-77
2022/03/30 04:19:38;;;;;;;26.55;17.48;;;;;;;5.40;100.00;92635.09;5012034;28;20053;-78
2022/03/30 04:22:05;;;;;;;39.17;20.75;;;;;;;5.21;100.00;92642.47;5011956;28;20046;-77
2022/03/30 04:24:32;;;;;;;41.75;21.77;;;;;;;4.95;100.00;92645.66;5011717;28;20045;-77
2022/03/30 04:27:00;;;;;;;39.88;23.10;;;;;;;4.79;100.00;92637.41;5011917;28;20046;-77
2022/03/30 04:29:27;;;;;;;41.20;22.83;;;;;;;4.61;100.00;92597.19;5009628;28;20038;-77
2022/03/30 04:31:54;;;;;;;48.67;22.30;;;;;;;4.85;100.00;92647.81;5011862;28;20049;-77
2022/03/30 04:34:21;;;;;;;33.33;19.33;;;;;;;4.88;100.00;92643.13;5011821;28;20042;-78
2022/03/30 04:36:47;;;;;;;41.88;21.42;;;;;;;4.97;100.00;92635.31;5011677;28;20042;-77
2022/03/30 04:39:14;;;;;;;34.22;20.30;;;;;;;5.06;100.00;92636.72;5011490;28;20101;-77
2022/03/30 04:41:41;;;;;;;31.42;18.30;;;;;;;5.03;100.00;92612.44;5011652;28;20549;-77
2022/03/30 04:44:09;;;;;;;35.97;20.60;;;;;;;5.23;100.00;92626.97;5011323;28;20096;-77
2022/03/30 04:46:36;;;;;;;31.52;19.92;;;;;;;5.36;100.00;92631.34;5011362;28;20045;-78
2022/03/30 04:49:05;;;;;;;37.47;22.02;;;;;;;5.42;100.00;92628.03;5010944;28;20042;-77
2022/03/30 04:51:32;;;;;;;36.72;21.60;;;;;;;5.40;100.00;92613.91;5011416;28;20038;-77
2022/03/30 04:53:59;;;;;;;34.15;20.73;;;;;;;5.43;100.00;92613.53;5011152;28;20096;-77
2022/03/30 04:56:26;;;;;;;39.63;20.35;;;;;;;5.60;100.00;92642.00;5008806;28;20050;-78
2022/03/30 04:58:53;;;;;;;35.70;21.00;;;;;;;5.70;99.52;92634.75;5009293;28;20076;-78
2022/03/30 05:01:21;;;;;;;36.78;21.75;;;;;;;5.48;100.00;92639.97;5010133;28;20053;-77
2022/03/30 05:03:47;;;;;;;40.70;21.45;;;;;;;5.32;100.00;92648.00;5010704;28;20096;-78
2022/03/30 05:06:14;;;;;;;46.13;24.65;;;;;;;5.25;100.00;92653.06;5010881;28;20046;-77
2022/03/30 05:08:41;;;;;;;44.83;23.83;;;;;;;5.27;100.00;92651.09;5010634;28;20177;-77
2022/03/30 05:11:08;;;;;;;41.25;24.88;;;;;;;5.17;100.00;92643.81;5010449;28;20077;-77
2022/03/30 05:13:35;;;;;;;40.75;22.48;;;;;;;5.28;100.00;92639.16;5010439;28;20037;-78
2022/03/30 05:16:01;;;;;;;47.90;26.80;;;;;;;5.47;100.00;92650.38;5009984;28;20042;-77
2022/03/30 05:18:30;;;;;;;58.08;27.77;;;;;;;5.71;100.00;92656.72;5009015;28;20460;-78
2022/03/30 05:20:56;;;;;;;50.83;25.00;;;;;;;5.66;100.00;92630.22;5010287;28;20037;-78
2022/03/30 05:23:23;;;;;;;59.47;27.60;;;;;;;5.67;100.00;92652.97;5010157;28;20045;-78
2022/03/30 05:25:50;;;;;;;59.70;26.35;;;;;;;5.26;100.00;92629.16;5009975;28;20492;-79
2022/03/30 05:28:17;;;;;;;47.05;22.40;;;;;;;5.31;100.00;92619.19;5010141;28;20042;-79
2022/03/30 05:30:44;;;;;;;45.22;23.33;;;;;;;5.26;100.00;92651.28;5009834;28;20097;-79
2022/03/30 05:33:11;;;;;;;45.20;25.98;;;;;;;5.15;100.00;92655.16;5010028;28;20391;-78
2022/03/30 05:35:39;;;;;;;58.00;28.02;;;;;;;5.16;100.00;92656.72;5009647;28;20038;-78
2022/03/30 05:38:06;;;;;;;50.47;26.42;;;;;;;5.28;100.00;92645.03;5009998;28;20060;-78
2022/03/30 05:40:33;;;;;;;57.42;33.45;;;;;;;5.35;100.00;92648.41;5009862;28;20038;-78
2022/03/30 05:43:00;;;;;;;71.85;36.05;;;;;;;5.39;100.00;92637.81;5009794;28;20053;-78
2022/03/30 05:45:27;;;;;;;59.85;32.33;;;;;;;5.65;100.00;92660.00;5009821;28;20482;-78
2022/03/30 05:47:53;;;;;;;51.42;29.75;;;;;;;5.64;100.00;92652.59;5009982;28;20407;-78
2022/03/30 05:50:23;;;;;;;47.20;26.63;;;;;;;5.69;100.00;92657.88;5009507;28;20069;-79
2022/03/30 05:52:51;;;;;;;45.10;27.00;;;;;;;5.79;100.00;92655.72;5009774;28;20092;-79
2022/03/30 05:55:18;;;;;;;46.47;24.65;;;;;;;5.85;100.00;92633.78;5009773;28;20044;-79
2022/03/30 05:57:45;;;;;;;47.15;25.85;;;;;;;6.32;100.00;92656.78;5007055;28;20042;-79
2022/03/30 06:00:13;;;;;;;40.83;24.45;;;;;;;6.48;100.00;92658.13;5009261;28;20038;-78
2022/03/30 06:02:40;;;;;;;46.72;24.88;;;;;;;6.47;100.00;92648.94;5009454;28;21061;-78
2022/03/30 06:05:08;;;;;;;57.55;27.10;;;;;;;6.63;100.00;92650.28;5010493;28;20049;-78
2022/03/30 06:07:34;;;;;;;45.00;24.65;;;;;;;7.00;99.82;92657.47;5009716;28;20073;-78
2022/03/30 06:10:04;;;;;;;63.10;27.35;;;;;;;7.07;99.11;92653.13;5010042;28;20120;-78
2022/03/30 06:12:31;;;;;;;66.68;27.80;;;;;;;7.54;95.28;92652.16;5009878;28;20394;-78
2022/03/30 06:14:58;;;;;;;77.15;27.55;;;;;;;7.80;92.96;92658.09;5009428;28;20049;-78
2022/03/30 06:17:25;;;;;;;84.18;29.58;;;;;;;8.14;90.89;92648.44;5009344;28;20097;-78
2022/03/30 06:19:53;;;;;;;80.45;27.88;;;;;;;8.35;89.90;92654.19;5008912;28;20053;-78
2022/03/30 06:22:20;;;;;;;84.57;27.33;;;;;;;8.41;87.73;92634.66;5008964;28;20050;-78
2022/03/30 06:24:48;;;;;;;80.28;27.52;;;;;;;8.67;87.67;92661.81;5006822;28;20395;-77
2022/03/30 06:27:17;;;;;;;78.43;25.33;;;;;;;9.08;85.16;92657.06;5009369;28;20452;-77
2022/03/30 06:29:44;;;;;;;79.32;27.27;;;;;;;8.94;83.73;92638.50;5009101;28;20074;-78
2022/03/30 06:32:11;;;;;;;62.33;28.38;;;;;;;8.81;87.21;92669.38;5009143;28;20041;-78
2022/03/30 06:34:38;;;;;;;52.30;24.40;;;;;;;9.32;84.97;92662.34;5009041;28;20069;-78
2022/03/30 06:37:06;;;;;;;39.85;20.33;;;;;;;9.30;83.24;92673.81;5006321;28;20038;-78
2022/03/30 06:39:33;;;;;;;50.80;20.98;;;;;;;9.40;83.56;92670.75;5008940;28;20048;-78
2022/03/30 06:41:59;;;;;;;38.05;19.08;;;;;;;9.39;82.79;92682.75;5009417;28;20049;-78
2022/03/30 06:44:28;;;;;;;38.90;19.45;;;;;;;9.83;80.60;92674.94;5007057;28;20046;-77
2022/03/30 06:46:55;;;;;;;27.58;15.05;;;;;;;9.78;80.58;92661.19;5009735;28;20061;-77
2022/03/30 06:49:22;;;;;;;26.60;15.82;;;;;;;10.20;78.36;92683.50;5009375;28;20049;-78
2022/03/30 06:51:48;;;;;;;31.60;16.98;;;;;;;10.48;76.46;92685.50;5009718;28;20046;-78
2022/03/30 06:54:16;;;;;;;35.42;17.33;;;;;;;10.82;75.04;92679.81;5009116;28;20042;-78
2022/03/30 06:56:43;;;;;;;30.75;14.82;;;;;;;10.86;75.35;92678.34;5008643;28;20042;-78
2022/03/30 06:59:12;;;;;;;29.50;16.17;;;;;;;10.73;75.21;92661.38;5008720;28;20046;-78
2022/03/30 07:01:40;;;;;;;34.50;17.58;;;;;;;11.37;72.68;92664.97;5009027;28;20128;-77
2022/03/30 07:04:07;;;;;;;36.50;17.02;;;;;;;11.56;71.41;92652.75;5009143;28;20041;-77
2022/03/30 07:06:34;;;;;;;33.28;18.08;;;;;;;11.98;68.05;92672.25;5005950;28;20038;-78
2022/03/30 07:11:46;;;;;;;45.88;18.48;;;;;;;12.05;70.48;92659.28;5006118;28;20053;-78
2022/03/30 07:14:13;;;;;;;22.15;12.38;;;;;;;12.39;67.59;92659.31;5008826;28;20443;-78
2022/03/30 07:16:41;;;;;;;32.28;14.70;;;;;;;12.82;67.83;92651.13;5008743;28;20038;-78
2022/03/30 07:19:08;;;;;;;20.85;10.18;;;;;;;13.15;65.61;92626.28;5006408;28;20042;-78
2022/03/30 07:21:34;;;;;;;15.13;7.60;;;;;;;13.49;63.37;92613.31;5008456;28;20042;-78
2022/03/30 07:24:01;;;;;;;14.77;7.72;;;;;;;13.86;59.98;92645.41;5008739;28;20399;-78
2022/03/30 07:26:28;;;;;;;14.25;7.82;;;;;;;14.00;59.04;92634.69;5008285;28;20050;-78
2022/03/30 07:28:55;;;;;;;12.95;6.88;;;;;;;14.13;58.55;92636.84;5008806;28;20041;-78
2022/03/30 07:31:23;;;;;;;13.80;7.63;;;;;;;14.43;58.22;92655.44;5008345;28;20034;-79
2022/03/30 07:33:51;;;;;;;13.93;6.82;;;;;;;14.63;57.86;92656.63;5009011;28;20133;-79
2022/03/30 07:36:18;;;;;;;16.48;7.53;;;;;;;14.66;57.70;92632.84;5009094;28;20042;-79
2022/03/30 07:38:44;;;;;;;16.75;7.97;;;;;;;14.76;56.82;92637.34;5008936;28;20041;-79
2022/03/30 07:41:11;;;;;;;9.95;6.40;;;;;;;15.01;56.05;92659.22;5009380;28;20050;-79
2022/03/30 07:43:38;;;;;;;17.88;7.25;;;;;;;15.15;54.67;92654.38;5012934;28;20396;-79
2022/03/30 07:46:08;;;;;;;15.38;6.78;;;;;;;15.18;51.15;92653.88;5012338;28;20084;-79
2022/03/30 07:48:34;;;;;;;13.43;6.28;;;;;;;15.44;52.84;92659.13;5012405;28;20368;-79
2022/03/30 07:51:03;;;;;;;13.00;6.07;;;;;;;15.48;52.51;92661.00;5012088;28;20050;-79
2022/03/30 07:53:30;;;;;;;13.82;5.82;;;;;;;15.68;51.24;92649.13;5012230;28;20054;-79
2022/03/30 07:55:57;;;;;;;12.60;5.13;;;;;;;15.61;50.19;92623.47;5012351;28;20381;-79
2022/03/30 07:58:24;;;;;;;14.48;6.05;;;;;;;15.96;47.81;92657.50;5012097;28;20399;-79
2022/03/30 08:00:50;;;;;;;14.98;5.40;;;;;;;16.12;46.25;92658.28;5011920;28;20052;-78
2022/03/30 08:03:17;;;;;;;13.00;5.82;;;;;;;16.08;43.91;92602.88;5011934;28;20104;-78
2022/03/30 08:05:44;;;;;;;14.57;5.50;;;;;;;16.22;42.35;92620.47;5012334;28;20045;-78
2022/03/30 08:08:13;;;;;;;12.00;5.38;;;;;;;16.48;42.34;92649.75;5011967;28;20061;-79
2022/03/30 08:10:40;;;;;;;14.77;4.65;;;;;;;16.40;42.90;92629.56;5012271;28;20061;-78
2022/03/30 08:13:07;;;;;;;19.63;5.50;;;;;;;16.60;42.19;92653.91;5011911;28;20100;-78
2022/03/30 08:15:36;;;;;;;11.80;4.63;;;;;;;16.53;42.93;92633.44;5012136;28;20046;-78
2022/03/30 08:18:05;;;;;;;10.27;4.43;;;;;;;16.72;42.84;92658.84;5011768;28;20045;-78
2022/03/30 08:23:17;;;;;;;14.20;5.82;;;;;;;16.55;43.27;92665.84;5012025;28;20052;-79
2022/03/30 08:25:44;;;;;;;14.50;4.95;;;;;;;16.32;43.61;92661.16;5011671;28;20498;-79
2022/03/30 08:28:11;;;;;;;13.75;5.55;;;;;;;16.29;43.83;92639.91;5011799;28;20109;-79
2022/03/30 08:30:38;;;;;;;11.43;4.55;;;;;;;16.30;43.71;92636.28;5011552;28;20046;-79
2022/03/30 08:33:05;;;;;;;10.43;5.05;;;;;;;16.09;43.69;92638.09;5009924;28;20046;-79
2022/03/30 08:35:32;;;;;;;11.82;4.90;;;;;;;16.25;44.16;92638.88;5009415;28;20150;-79
2022/03/30 08:38:00;;;;;;;11.70;5.20;;;;;;;16.45;44.13;92644.31;5010744;28;20104;-79
2022/03/30 08:40:28;;;;;;;9.43;5.93;;;;;;;16.56;44.40;92630.31;5011787;28;20050;-79
2022/03/30 08:42:55;;;;;;;8.07;4.78;;;;;;;16.70;44.00;92617.59;5011259;28;20049;-79
2022/03/30 08:45:22;;;;;;;12.93;5.85;;;;;;;16.71;43.97;92611.38;5011573;28;20046;-79
2022/03/30 08:47:49;;;;;;;13.43;5.13;;;;;;;16.56;43.75;92615.56;5011594;28;20491;-79
2022/03/30 08:50:17;;;;;;;10.43;5.07;;;;;;;16.55;43.61;92613.22;5011280;28;20053;-79
2022/03/30 08:52:47;;;;;;;13.25;5.53;;;;;;;16.20;44.35;92605.19;5010970;28;20050;-79
2022/03/30 08:55:14;;;;;;;13.80;6.05;;;;;;;16.27;44.98;92610.13;5010565;28;20046;-79
2022/03/30 08:57:42;;;;;;;11.85;5.53;;;;;;;16.28;45.03;92612.47;5011602;28;20049;-79
2022/03/30 09:00:16;;;;;;;12.32;6.00;;;;;;;16.45;44.89;92605.44;5010970;28;20050;-79
2022/03/30 09:02:45;;;;;;;12.30;5.93;;;;;;;16.48;44.14;92608.28;5011281;28;20092;-79
2022/03/30 09:05:19;;;;;;;12.02;5.43;;;;;;;16.60;42.86;92604.63;5010734;28;20477;-79
2022/03/30 09:07:49;;;;;;;9.73;4.93;;;;;;;16.72;42.56;92605.16;5010936;28;20046;-79
2022/03/30 09:10:18;;;;;;;17.50;5.90;;;;;;;16.85;42.76;92601.22;5010881;28;20042;-79
2022/03/30 09:12:49;;;;;;;10.57;4.88;;;;;;;16.80;42.21;92575.31;5011045;28;20145;-79
2022/03/30 09:15:17;;;;;;;14.10;6.00;;;;;;;17.14;41.83;92579.91;5011002;28;20395;-79
2022/03/30 09:17:44;;;;;;;12.43;5.70;;;;;;;17.38;42.14;92579.28;5010901;28;20053;-79
2022/03/30 09:20:17;;;;;;;13.52;4.38;;;;;;;17.36;41.22;92565.78;5010658;28;20092;-80
2022/03/30 09:22:48;;;;;;;10.32;5.10;;;;;;;17.48;41.47;92562.88;5010885;28;20120;-79
2022/03/30 09:25:15;;;;;;;14.20;5.15;;;;;;;17.61;41.07;92575.28;5010708;28;20038;-79
2022/03/30 09:27:43;;;;;;;9.35;4.47;;;;;;;17.46;39.47;92560.53;5010582;28;20037;-80
2022/03/30 09:30:15;;;;;;;12.90;4.97;;;;;;;17.64;38.14;92579.16;5010212;28;20042;-79
2022/03/30 09:32:44;;;;;;;10.30;3.83;;;;;;;17.59;38.26;92582.53;5010351;28;20539;-81
2022/03/30 09:35:24;;;;;;;10.80;4.00;;;;;;;17.58;38.81;92583.59;5010461;28;20045;-80
2022/03/30 09:38:08;;;;;;;10.52;3.55;;;;;;;17.65;38.47;92577.31;5010390;28;20174;-80
2022/03/30 09:40:41;;;;;;;10.10;3.85;;;;;;;17.58;38.40;92549.81;5010713;28;20046;-80
2022/03/30 09:43:15;;;;;;;12.35;5.03;;;;;;;17.74;38.45;92541.94;5010889;28;20095;-80
2022/03/30 09:45:44;;;;;;;7.43;4.47;;;;;;;17.67;38.63;92555.22;5006953;28;20042;-79
2022/03/30 09:48:13;;;;;;;12.52;4.53;;;;;;;17.43;38.61;92514.34;5008447;28;20038;-80
2022/03/30 09:50:48;;;;;;;8.68;3.85;;;;;;;17.65;38.48;92527.97;5009705;28;20083;-79
2022/03/30 09:53:18;;;;;;;10.40;4.75;;;;;;;17.70;38.64;92525.34;5010157;28;20096;-79
2022/03/30 09:55:56;;;;;;;19.20;4.50;;;;;;;17.86;37.81;92529.38;5009873;28;20442;-80
2022/03/30 09:58:25;;;;;;;10.70;4.50;;;;;;;17.49;37.94;92495.09;5009997;28;20045;-80
2022/03/30 10:01:29;;;;;;;14.88;4.15;;;;;;;17.46;38.09;92526.78;5010140;28;20468;-80
2022/03/30 10:03:59;;;;;;;11.63;4.53;;;;;;;17.25;38.55;92507.94;4949009;28;20114;-80
2022/03/30 10:06:27;;;;;;;13.32;4.20;;;;;;;17.38;38.50;92521.38;4948633;28;20544;-80
2022/03/30 10:08:55;;;;;;;11.32;4.00;;;;;;;17.45;38.39;92516.69;4979058;28;20081;-80
2022/03/30 10:11:23;;;;;;;17.50;5.05;;;;;;;17.39;38.64;92484.00;5010476;28;20435;-80
2022/03/30 10:13:53;;;;;;;10.32;4.80;;;;;;;17.82;38.48;92497.19;5010252;28;20042;-80
2022/03/30 10:16:20;;;;;;;10.13;3.70;;;;;;;17.93;37.73;92474.50;5009814;28;20053;-80
2022/03/30 10:18:49;;;;;;;10.55;5.10;;;;;;;17.96;37.02;92468.00;5009853;28;20050;-80
2022/03/30 10:21:23;;;;;;;10.18;4.38;;;;;;;18.10;37.30;92478.56;5009739;28;20491;-80
2022/03/30 10:24:13;;;;;;;20.48;5.25;;;;;;;18.11;37.11;92474.91;5009729;28;20042;-80
2022/03/30 10:26:51;;;;;;;18.77;6.78;;;;;;;18.16;36.65;92483.41;5005691;28;20046;-80
2022/03/30 10:29:22;;;;;;;11.85;4.20;;;;;;;17.95;37.00;92448.25;5009328;28;20069;-80
2022/03/30 10:32:11;;;;;;;9.82;4.53;;;;;;;18.08;37.03;92483.22;5009443;28;20090;-80
2022/03/30 10:34:50;;;;;;;12.48;4.38;;;;;;;17.99;37.08;92480.44;5000929;28;20486;-80
2022/03/30 10:37:25;;;;;;;11.75;3.97;;;;;;;18.09;37.64;92485.56;5005670;28;20559;-81
2022/03/30 10:39:56;;;;;;;6.28;3.30;;;;;;;18.15;37.12;92481.88;5007360;28;20057;-80
2022/03/30 10:42:24;;;;;;;11.13;4.20;;;;;;;18.15;37.06;92468.13;5009694;28;20054;-80
2022/03/30 10:44:57;;;;;;;10.65;4.60;;;;;;;18.05;36.53;92473.38;5009380;28;20054;-80
2022/03/30 10:47:26;;;;;;;13.05;4.55;;;;;;;17.69;36.30;92435.50;5009261;28;20382;-80
2022/03/30 10:49:56;;;;;;;11.90;4.32;;;;;;;17.71;36.80;92465.34;5009710;28;20485;-80
2022/03/30 10:52:39;;;;;;;8.25;3.65;;;;;;;17.53;36.62;92453.03;5010006;28;20463;-80
2022/03/30 10:55:33;;;;;;;9.57;4.55;;;;;;;17.75;36.79;92481.16;5009517;28;20041;-80
2022/03/30 10:58:02;;;;;;;10.90;3.90;;;;;;;17.69;36.78;92454.44;5009376;28;20459;-79
2022/03/30 11:00:34;;;;;;;8.93;3.70;;;;;;;17.89;36.67;92491.69;5008891;28;20054;-80
2022/03/30 11:03:08;;;;;;;7.32;3.78;;;;;;;17.95;35.87;92480.19;5009351;28;20061;-80
2022/03/30 11:05:38;;;;;;;8.55;4.88;;;;;;;18.07;35.29;92484.28;5008917;28;20796;-80
2022/03/30 11:08:06;;;;;;;8.57;3.90;;;;;;;18.04;35.05;92480.38;5009350;28;20046;-80
2022/03/30 11:10:47;;;;;;;10.90;6.15;;;;;;;18.19;35.62;92486.53;5009499;28;20056;-80
2022/03/30 11:13:23;;;;;;;9.60;4.40;;;;;;;18.04;35.43;92457.00;5009175;28;20042;-80
2022/03/30 11:16:12;;;;;;;16.33;4.22;;;;;;;17.92;35.19;92472.97;5009076;28;20050;-80
2022/03/30 11:19:04;;;;;;;13.88;4.45;;;;;;;17.93;35.26;92463.34;5012871;28;20050;-80
2022/03/30 11:21:33;;;;;;;9.50;3.50;;;;;;;17.90;35.83;92446.47;5011326;28;20096;-80
2022/03/30 11:24:20;;;;;;;13.40;4.18;;;;;;;18.03;35.29;92458.84;5010467;28;20046;-80
2022/03/30 11:27:20;;;;;;;15.77;5.18;;;;;;;18.12;36.11;92447.84;5012712;28;20475;-80
2022/03/30 11:30:04;;;;;;;14.23;4.10;;;;;;;18.29;35.14;92457.84;4993073;28;20043;-80
2022/03/30 11:32:50;;;;;;;10.55;4.10;;;;;;;18.36;35.73;92458.28;4992829;28;20050;-80
2022/03/30 11:35:19;;;;;;;12.23;4.50;;;;;;;18.36;35.59;92439.28;4989846;28;20049;-80
2022/03/30 11:37:48;;;;;;;8.13;3.70;;;;;;;18.38;35.86;92452.81;4992912;28;20053;-80
2022/03/30 11:40:17;;;;;;;11.55;4.70;;;;;;;18.42;36.04;92451.97;5011422;28;20095;-80
2022/03/30 11:42:46;;;;;;;8.75;4.25;;;;;;;18.38;36.43;92435.38;5032731;28;20060;-80